DEN weather

Denver International Airport
Denver, Colorado, United States

Public forecast

Using degrees Fahrenheit for public forecast. Weather courtesy of forecast.io.

Current aviation weather report (METAR) for Denver International Airport

Retrieved 2020/01/26 19:53 UTC (17 minutes ago):

KDEN 261953Z 12010KT 10SM FEW120 SCT220 11/M08 A3000 RMK AO2 SLP141 ACSL DSNT SW-NW T01061078

Aviation forecast (TAF) for Denver International Airport

Retrieved 2020/01/26 18:42 UTC (1 hour ago):

TAF KDEN 261739Z 2618/2724 10005KT P6SM FEW100 FM262100 03010KT P6SM FEW100 BKN220 FM270000 17006KT P6SM SCT100 BKN220 FM271300 32007KT P6SM BKN060 OVC100 FM271800 04007KT P6SM SCT040 OVC060 PROB30 2718/2724 -SHSN BKN040